sensor_id;sensor_type;location;lat;lon;timestamp;pressure;altitude;pressure_sealevel;temperature;humidity
11676;BME280;5894;42.768;23.404;2023-05-01T00:01:12;95608.47;;;10.68;100.00
11676;BME280;5894;42.768;23.404;2023-05-01T00:03:39;95613.56;;;10.64;100.00
11676;BME280;5894;42.768;23.404;2023-05-01T00:06:06;95610.50;;;10.71;100.00
11676;BME280;5894;42.768;23.404;2023-05-01T00:08:37;95617.63;;;10.71;100.00
11676;BME280;5894;42.768;23.404;2023-05-01T00:11:05;95623.53;;;10.68;100.00
11676;BME280;5894;42.768;23.404;2023-05-01T00:13:34;95616.69;;;10.66;100.00
11676;BME280;5894;42.768;23.404;2023-05-01T00:16:01;95613.41;;;10.70;100.00
11676;BME280;5894;42.768;23.404;2023-05-01T00:18:33;95617.09;;;10.82;100.00
11676;BME280;5894;42.768;23.404;2023-05-01T00:21:00;95620.75;;;10.73;100.00
11676;BME280;5894;42.768;23.404;2023-05-01T00:23:27;95623.31;;;10.64;100.00
11676;BME280;5894;42.768;23.404;2023-05-01T00:25:55;95625.13;;;10.55;100.00
11676;BME280;5894;42.768;23.404;2023-05-01T00:28:22;95625.91;;;10.55;100.00
11676;BME280;5894;42.768;23.404;2023-05-01T00:30:49;95625.84;;;10.69;100.00
11676;BME280;5894;42.768;23.404;2023-05-01T00:33:16;95637.22;;;10.56;100.00
11676;BME280;5894;42.768;23.404;2023-05-01T00:35:43;95626.84;;;10.37;100.00
11676;BME280;5894;42.768;23.404;2023-05-01T00:38:11;95644.75;;;10.49;100.00
11676;BME280;5894;42.768;23.404;2023-05-01T00:40:41;95633.00;;;10.33;100.00
11676;BME280;5894;42.768;23.404;2023-05-01T00:43:10;95632.94;;;10.24;100.00
11676;BME280;5894;42.768;23.404;2023-05-01T00:45:39;95631.56;;;10.26;100.00
11676;BME280;5894;42.768;23.404;2023-05-01T00:48:08;95627.53;;;10.29;100.00
11676;BME280;5894;42.768;23.404;2023-05-01T00:50:35;95628.81;;;10.32;100.00
11676;BME280;5894;42.768;23.404;2023-05-01T00:53:03;95628.31;;;10.29;100.00
11676;BME280;5894;42.768;23.404;2023-05-01T00:55:30;95627.84;;;10.27;100.00
11676;BME280;5894;42.768;23.404;2023-05-01T00:57:58;95639.66;;;10.30;100.00
11676;BME280;5894;42.768;23.404;2023-05-01T01:00:27;95640.72;;;10.29;100.00
11676;BME280;5894;42.768;23.404;2023-05-01T01:02:54;95646.59;;;10.26;100.00
11676;BME280;5894;42.768;23.404;2023-05-01T01:05:24;95644.25;;;10.24;100.00
11676;BME280;5894;42.768;23.404;2023-05-01T01:08:00;95636.75;;;10.18;100.00
11676;BME280;5894;42.768;23.404;2023-05-01T01:10:34;95648.75;;;10.24;100.00
11676;BME280;5894;42.768;23.404;2023-05-01T01:13:08;95649.34;;;10.21;100.00
11676;BME280;5894;42.768;23.404;2023-05-01T01:15:43;95589.06;;;9.78;100.00
11676;BME280;5894;42.768;23.404;2023-05-01T01:18:15;95626.91;;;9.96;100.00
11676;BME280;5894;42.768;23.404;2023-05-01T01:20:49;95650.78;;;10.13;100.00
11676;BME280;5894;42.768;23.404;2023-05-01T01:23:42;95621.75;;;9.91;100.00
11676;BME280;5894;42.768;23.404;2023-05-01T01:26:32;95656.63;;;10.10;100.00
11676;BME280;5894;42.768;23.404;2023-05-01T01:29:25;95656.75;;;10.05;100.00
11676;BME280;5894;42.768;23.404;2023-05-01T01:32:09;95662.97;;;10.09;100.00
11676;BME280;5894;42.768;23.404;2023-05-01T01:34:48;95639.41;;;9.90;100.00
11676;BME280;5894;42.768;23.404;2023-05-01T01:37:20;95660.47;;;10.04;100.00
11676;BME280;5894;42.768;23.404;2023-05-01T01:39:51;95636.75;;;9.90;100.00
11676;BME280;5894;42.768;23.404;2023-05-01T01:42:21;95669.81;;;10.10;100.00
11676;BME280;5894;42.768;23.404;2023-05-01T01:44:54;95667.97;;;10.11;100.00
11676;BME280;5894;42.768;23.404;2023-05-01T01:47:25;95665.72;;;10.18;100.00
11676;BME280;5894;42.768;23.404;2023-05-01T01:49:55;95673.13;;;10.16;100.00
11676;BME280;5894;42.768;23.404;2023-05-01T01:52:25;95673.16;;;9.75;100.00
11676;BME280;5894;42.768;23.404;2023-05-01T01:54:55;95676.94;;;9.69;100.00
11676;BME280;5894;42.768;23.404;2023-05-01T01:57:24;95676.84;;;9.60;100.00
11676;BME280;5894;42.768;23.404;2023-05-01T01:59:54;95680.88;;;9.25;100.00
11676;BME280;5894;42.768;23.404;2023-05-01T02:02:22;95666.00;;;8.88;100.00
11676;BME280;5894;42.768;23.404;2023-05-01T02:04:50;95613.31;;;8.61;100.00
11676;BME280;5894;42.768;23.404;2023-05-01T02:07:19;95664.47;;;9.01;100.00
11676;BME280;5894;42.768;23.404;2023-05-01T02:09:49;95663.81;;;9.09;100.00
11676;BME280;5894;42.768;23.404;2023-05-01T02:12:18;95660.69;;;9.07;100.00
11676;BME280;5894;42.768;23.404;2023-05-01T02:14:47;95669.41;;;8.89;100.00
11676;BME280;5894;42.768;23.404;2023-05-01T02:17:15;95679.31;;;8.78;100.00
11676;BME280;5894;42.768;23.404;2023-05-01T02:19:45;95681.44;;;8.57;100.00
11676;BME280;5894;42.768;23.404;2023-05-01T02:22:13;95676.75;;;8.54;100.00
11676;BME280;5894;42.768;23.404;2023-05-01T02:24:44;95664.13;;;8.37;100.00
11676;BME280;5894;42.768;23.404;2023-05-01T02:27:17;95660.06;;;8.45;100.00
11676;BME280;5894;42.768;23.404;2023-05-01T02:29:45;95660.19;;;8.54;100.00
11676;BME280;5894;42.768;23.404;2023-05-01T02:32:12;95657.69;;;8.62;100.00
11676;BME280;5894;42.768;23.404;2023-05-01T02:34:39;95649.47;;;8.69;100.00
11676;BME280;5894;42.768;23.404;2023-05-01T02:37:09;95655.75;;;8.87;100.00
11676;BME280;5894;42.768;23.404;2023-05-01T02:39:38;95659.72;;;8.84;100.00
11676;BME280;5894;42.768;23.404;2023-05-01T02:42:08;95660.44;;;8.90;100.00
11676;BME280;5894;42.768;23.404;2023-05-01T02:44:39;95667.09;;;9.01;100.00
11676;BME280;5894;42.768;23.404;2023-05-01T02:47:12;95671.88;;;8.99;100.00
11676;BME280;5894;42.768;23.404;2023-05-01T02:49:42;95674.50;;;8.99;100.00
11676;BME280;5894;42.768;23.404;2023-05-01T02:52:11;95674.00;;;8.97;100.00
11676;BME280;5894;42.768;23.404;2023-05-01T02:54:39;95674.22;;;9.00;100.00
11676;BME280;5894;42.768;23.404;2023-05-01T02:57:10;95682.09;;;9.00;100.00
11676;BME280;5894;42.768;23.404;2023-05-01T02:59:38;95670.59;;;8.96;100.00
11676;BME280;5894;42.768;23.404;2023-05-01T03:02:05;95679.63;;;8.90;100.00
11676;BME280;5894;42.768;23.404;2023-05-01T03:04:33;95675.50;;;8.84;100.00
11676;BME280;5894;42.768;23.404;2023-05-01T03:07:00;95682.06;;;8.87;100.00
11676;BME280;5894;42.768;23.404;2023-05-01T03:09:27;95675.72;;;8.88;100.00
11676;BME280;5894;42.768;23.404;2023-05-01T03:11:54;95680.72;;;8.89;100.00
11676;BME280;5894;42.768;23.404;2023-05-01T03:14:24;95684.13;;;8.90;100.00
11676;BME280;5894;42.768;23.404;2023-05-01T03:16:53;95678.84;;;8.90;100.00
11676;BME280;5894;42.768;23.404;2023-05-01T03:19:20;95688.81;;;8.93;100.00
11676;BME280;5894;42.768;23.404;2023-05-01T03:21:47;95699.34;;;8.93;100.00
11676;BME280;5894;42.768;23.404;2023-05-01T03:24:14;95693.06;;;8.89;100.00
11676;BME280;5894;42.768;23.404;2023-05-01T03:26:41;95696.53;;;8.84;100.00
11676;BME280;5894;42.768;23.404;2023-05-01T03:29:08;95701.91;;;8.79;100.00
11676;BME280;5894;42.768;23.404;2023-05-01T03:31:39;95695.19;;;8.87;100.00
11676;BME280;5894;42.768;23.404;2023-05-01T03:34:08;95700.25;;;8.83;100.00
11676;BME280;5894;42.768;23.404;2023-05-01T03:36:35;95694.19;;;8.82;100.00
11676;BME280;5894;42.768;23.404;2023-05-01T03:39:03;95698.91;;;8.86;100.00
11676;BME280;5894;42.768;23.404;2023-05-01T03:41:51;95696.78;;;8.88;100.00
11676;BME280;5894;42.768;23.404;2023-05-01T03:44:24;95699.41;;;8.88;100.00
11676;BME280;5894;42.768;23.404;2023-05-01T03:46:53;95704.38;;;8.89;100.00
11676;BME280;5894;42.768;23.404;2023-05-01T03:49:24;95704.66;;;8.88;100.00
11676;BME280;5894;42.768;23.404;2023-05-01T03:51:52;95709.63;;;8.89;100.00
11676;BME280;5894;42.768;23.404;2023-05-01T03:54:19;95706.13;;;8.94;100.00
11676;BME280;5894;42.768;23.404;2023-05-01T03:56:56;95711.53;;;9.02;100.00
11676;BME280;5894;42.768;23.404;2023-05-01T03:59:25;95701.38;;;8.96;100.00
11676;BME280;5894;42.768;23.404;2023-05-01T04:01:54;95717.88;;;8.82;100.00
11676;BME280;5894;42.768;23.404;2023-05-01T04:04:21;95709.94;;;8.69;100.00
11676;BME280;5894;42.768;23.404;2023-05-01T04:06:54;95706.72;;;8.53;100.00
11676;BME280;5894;42.768;23.404;2023-05-01T04:09:21;95701.47;;;8.53;100.00
11676;BME280;5894;42.768;23.404;2023-05-01T04:11:48;95694.03;;;8.60;100.00
11676;BME280;5894;42.768;23.404;2023-05-01T04:14:16;95704.19;;;8.67;100.00
11676;BME280;5894;42.768;23.404;2023-05-01T04:16:43;95705.38;;;8.74;100.00
11676;BME280;5894;42.768;23.404;2023-05-01T04:19:12;95708.50;;;8.76;100.00
11676;BME280;5894;42.768;23.404;2023-05-01T04:21:42;95709.22;;;8.82;100.00
11676;BME280;5894;42.768;23.404;2023-05-01T04:24:09;95723.56;;;8.90;100.00
11676;BME280;5894;42.768;23.404;2023-05-01T04:26:36;95733.03;;;8.91;100.00
11676;BME280;5894;42.768;23.404;2023-05-01T04:29:03;95728.16;;;8.98;100.00
11676;BME280;5894;42.768;23.404;2023-05-01T04:31:31;95737.13;;;8.97;100.00
11676;BME280;5894;42.768;23.404;2023-05-01T04:33:57;95738.69;;;8.98;100.00
11676;BME280;5894;42.768;23.404;2023-05-01T04:36:26;95739.59;;;9.07;100.00
11676;BME280;5894;42.768;23.404;2023-05-01T04:38:54;95740.72;;;9.19;100.00
11676;BME280;5894;42.768;23.404;2023-05-01T04:41:22;95758.66;;;9.17;100.00
11676;BME280;5894;42.768;23.404;2023-05-01T04:43:49;95746.69;;;9.25;100.00
11676;BME280;5894;42.768;23.404;2023-05-01T04:46:17;95753.88;;;9.19;100.00
11676;BME280;5894;42.768;23.404;2023-05-01T04:48:44;95755.84;;;9.28;100.00
11676;BME280;5894;42.768;23.404;2023-05-01T04:51:11;95753.56;;;9.40;100.00
11676;BME280;5894;42.768;23.404;2023-05-01T04:53:40;95754.84;;;9.42;100.00
11676;BME280;5894;42.768;23.404;2023-05-01T04:56:17;95729.41;;;9.19;100.00
11676;BME280;5894;42.768;23.404;2023-05-01T04:58:45;95756.00;;;9.50;100.00
11676;BME280;5894;42.768;23.404;2023-05-01T05:01:16;95750.25;;;9.48;100.00
11676;BME280;5894;42.768;23.404;2023-05-01T05:03:43;95748.50;;;9.43;100.00
11676;BME280;5894;42.768;23.404;2023-05-01T05:06:13;95757.44;;;9.75;100.00
11676;BME280;5894;42.768;23.404;2023-05-01T05:08:41;95756.66;;;9.88;100.00
11676;BME280;5894;42.768;23.404;2023-05-01T05:11:09;95758.25;;;10.16;100.00
11676;BME280;5894;42.768;23.404;2023-05-01T05:13:48;95757.97;;;10.32;100.00
11676;BME280;5894;42.768;23.404;2023-05-01T05:16:16;95765.09;;;10.45;100.00
11676;BME280;5894;42.768;23.404;2023-05-01T05:18:43;95760.59;;;10.45;100.00
11676;BME280;5894;42.768;23.404;2023-05-01T05:21:10;95770.66;;;10.57;100.00
11676;BME280;5894;42.768;23.404;2023-05-01T05:23:44;95772.47;;;10.70;100.00
11676;BME280;5894;42.768;23.404;2023-05-01T05:26:11;95775.84;;;10.84;100.00
11676;BME280;5894;42.768;23.404;2023-05-01T05:28:38;95774.38;;;10.92;100.00
11676;BME280;5894;42.768;23.404;2023-05-01T05:31:06;95783.16;;;11.23;100.00
11676;BME280;5894;42.768;23.404;2023-05-01T05:33:36;95785.81;;;11.46;100.00
11676;BME280;5894;42.768;23.404;2023-05-01T05:36:04;95773.91;;;11.57;100.00
11676;BME280;5894;42.768;23.404;2023-05-01T05:38:37;95789.78;;;11.79;100.00
11676;BME280;5894;42.768;23.404;2023-05-01T05:41:08;95795.81;;;12.02;100.00
11676;BME280;5894;42.768;23.404;2023-05-01T05:43:36;95790.56;;;12.19;100.00
11676;BME280;5894;42.768;23.404;2023-05-01T05:46:03;95793.16;;;12.41;100.00
11676;BME280;5894;42.768;23.404;2023-05-01T05:48:33;95791.00;;;12.52;100.00
11676;BME280;5894;42.768;23.404;2023-05-01T05:51:00;95802.56;;;12.65;100.00
11676;BME280;5894;42.768;23.404;2023-05-01T05:53:28;95758.78;;;12.50;100.00
11676;BME280;5894;42.768;23.404;2023-05-01T05:55:55;95808.84;;;12.95;100.00
11676;BME280;5894;42.768;23.404;2023-05-01T05:58:23;95807.09;;;12.99;100.00
11676;BME280;5894;42.768;23.404;2023-05-01T06:00:50;95804.63;;;13.11;100.00
11676;BME280;5894;42.768;23.404;2023-05-01T06:03:20;95796.38;;;13.12;100.00
11676;BME280;5894;42.768;23.404;2023-05-01T06:05:49;95819.78;;;13.28;100.00
11676;BME280;5894;42.768;23.404;2023-05-01T06:08:16;95817.59;;;13.21;100.00
11676;BME280;5894;42.768;23.404;2023-05-01T06:10:43;95814.03;;;13.26;100.00
11676;BME280;5894;42.768;23.404;2023-05-01T06:13:10;95817.28;;;13.40;100.00
11676;BME280;5894;42.768;23.404;2023-05-01T06:15:40;95821.19;;;13.42;100.00
11676;BME280;5894;42.768;23.404;2023-05-01T06:18:08;95820.41;;;13.33;100.00
11676;BME280;5894;42.768;23.404;2023-05-01T06:20:36;95826.78;;;13.32;100.00
11676;BME280;5894;42.768;23.404;2023-05-01T06:23:04;95816.81;;;13.46;100.00
11676;BME280;5894;42.768;23.404;2023-05-01T06:25:44;95814.00;;;13.51;100.00
11676;BME280;5894;42.768;23.404;2023-05-01T06:28:13;95814.63;;;13.57;100.00
11676;BME280;5894;42.768;23.404;2023-05-01T06:30:42;95820.84;;;13.78;100.00
11676;BME280;5894;42.768;23.404;2023-05-01T06:33:10;95825.50;;;13.90;100.00
11676;BME280;5894;42.768;23.404;2023-05-01T06:35:38;95826.28;;;13.82;100.00
11676;BME280;5894;42.768;23.404;2023-05-01T06:38:05;95830.19;;;13.84;100.00
11676;BME280;5894;42.768;23.404;2023-05-01T06:40:33;95835.63;;;13.96;100.00
11676;BME280;5894;42.768;23.404;2023-05-01T06:43:00;95825.91;;;14.09;100.00
11676;BME280;5894;42.768;23.404;2023-05-01T06:45:28;95812.34;;;14.02;100.00
11676;BME280;5894;42.768;23.404;2023-05-01T06:47:57;95826.03;;;14.21;100.00
11676;BME280;5894;42.768;23.404;2023-05-01T06:50:24;95825.56;;;14.19;100.00
11676;BME280;5894;42.768;23.404;2023-05-01T06:52:51;95833.31;;;14.33;100.00
11676;BME280;5894;42.768;23.404;2023-05-01T06:55:18;95835.94;;;14.50;100.00
11676;BME280;5894;42.768;23.404;2023-05-01T06:57:45;95834.72;;;14.39;100.00
11676;BME280;5894;42.768;23.404;2023-05-01T07:00:13;95778.25;;;13.83;100.00
11676;BME280;5894;42.768;23.404;2023-05-01T07:02:41;95831.56;;;14.46;100.00
11676;BME280;5894;42.768;23.404;2023-05-01T07:05:10;95828.88;;;14.63;100.00
11676;BME280;5894;42.768;23.404;2023-05-01T07:07:37;95834.69;;;14.77;100.00
11676;BME280;5894;42.768;23.404;2023-05-01T07:10:05;95838.06;;;14.95;100.00
11676;BME280;5894;42.768;23.404;2023-05-01T07:12:32;95838.81;;;14.95;100.00
11676;BME280;5894;42.768;23.404;2023-05-01T07:14:59;95835.66;;;15.02;100.00
11676;BME280;5894;42.768;23.404;2023-05-01T07:17:26;95838.19;;;15.19;100.00
11676;BME280;5894;42.768;23.404;2023-05-01T07:19:53;95831.63;;;15.37;100.00
11676;BME280;5894;42.768;23.404;2023-05-01T07:22:22;95837.44;;;15.60;100.00
11676;BME280;5894;42.768;23.404;2023-05-01T07:24:49;95835.75;;;15.76;100.00
11676;BME280;5894;42.768;23.404;2023-05-01T07:27:16;95831.94;;;15.98;100.00
11676;BME280;5894;42.768;23.404;2023-05-01T07:29:43;95843.25;;;16.20;100.00
11676;BME280;5894;42.768;23.404;2023-05-01T07:32:10;95843.19;;;16.40;100.00
11676;BME280;5894;42.768;23.404;2023-05-01T07:34:37;95840.69;;;16.68;100.00
11676;BME280;5894;42.768;23.404;2023-05-01T07:37:04;95845.78;;;16.73;100.00
11676;BME280;5894;42.768;23.404;2023-05-01T07:39:32;95845.78;;;16.98;100.00
11676;BME280;5894;42.768;23.404;2023-05-01T07:41:59;95850.88;;;17.15;100.00
11676;BME280;5894;42.768;23.404;2023-05-01T07:44:26;95843.50;;;17.36;100.00
11676;BME280;5894;42.768;23.404;2023-05-01T07:46:53;95848.78;;;17.48;100.00
11676;BME280;5894;42.768;23.404;2023-05-01T07:49:20;95842.78;;;17.64;100.00
11676;BME280;5894;42.768;23.404;2023-05-01T07:51:48;95846.03;;;17.85;100.00
11676;BME280;5894;42.768;23.404;2023-05-01T07:54:15;95846.56;;;17.90;100.00
11676;BME280;5894;42.768;23.404;2023-05-01T07:56:48;95841.16;;;18.03;100.00
11676;BME280;5894;42.768;23.404;2023-05-01T07:59:14;95846.00;;;18.13;100.00
11676;BME280;5894;42.768;23.404;2023-05-01T08:01:41;95838.59;;;18.38;100.00
11676;BME280;5894;42.768;23.404;2023-05-01T08:04:09;95841.41;;;18.57;100.00
11676;BME280;5894;42.768;23.404;2023-05-01T08:06:36;95840.19;;;18.70;98.80
11676;BME280;5894;42.768;23.404;2023-05-01T08:09:03;95850.09;;;18.69;95.53
11676;BME280;5894;42.768;23.404;2023-05-01T08:11:30;95846.31;;;18.86;93.08
11676;BME280;5894;42.768;23.404;2023-05-01T08:13:59;95824.63;;;19.07;96.07
11676;BME280;5894;42.768;23.404;2023-05-01T08:16:26;95821.63;;;19.28;98.01
11676;BME280;5894;42.768;23.404;2023-05-01T08:18:53;95838.09;;;19.65;91.10
11676;BME280;5894;42.768;23.404;2023-05-01T08:21:20;95836.25;;;19.88;93.41
11676;BME280;5894;42.768;23.404;2023-05-01T08:23:48;95832.19;;;20.17;91.65
11676;BME280;5894;42.768;23.404;2023-05-01T08:26:16;95821.88;;;20.38;89.85
11676;BME280;5894;42.768;23.404;2023-05-01T08:28:43;95836.44;;;20.64;88.22
11676;BME280;5894;42.768;23.404;2023-05-01T08:31:12;95834.91;;;20.63;86.36
11676;BME280;5894;42.768;23.404;2023-05-01T08:33:39;95836.31;;;20.57;85.79
11676;BME280;5894;42.768;23.404;2023-05-01T08:36:08;95826.16;;;20.43;83.26
11676;BME280;5894;42.768;23.404;2023-05-01T08:38:36;95832.16;;;20.36;82.89
11676;BME280;5894;42.768;23.404;2023-05-01T08:41:03;95827.25;;;20.19;81.89
11676;BME280;5894;42.768;23.404;2023-05-01T08:43:30;95821.22;;;20.03;86.97
11676;BME280;5894;42.768;23.404;2023-05-01T08:45:58;95818.25;;;20.08;85.05
11676;BME280;5894;42.768;23.404;2023-05-01T08:48:27;95818.19;;;20.04;86.39
11676;BME280;5894;42.768;23.404;2023-05-01T08:50:55;95821.94;;;20.00;79.85
11676;BME280;5894;42.768;23.404;2023-05-01T08:53:24;95813.63;;;19.86;74.06
11676;BME280;5894;42.768;23.404;2023-05-01T08:55:53;95805.75;;;19.73;77.63
11676;BME280;5894;42.768;23.404;2023-05-01T08:58:23;95811.06;;;19.70;77.89
11676;BME280;5894;42.768;23.404;2023-05-01T09:00:52;95802.22;;;19.89;77.92
11676;BME280;5894;42.768;23.404;2023-05-01T09:03:21;95794.19;;;19.89;82.41
11676;BME280;5894;42.768;23.404;2023-05-01T09:05:50;95767.16;;;19.74;79.40
11676;BME280;5894;42.768;23.404;2023-05-01T09:08:18;95810.53;;;20.03;81.08
11676;BME280;5894;42.768;23.404;2023-05-01T09:10:46;95809.56;;;20.14;86.10
11676;BME280;5894;42.768;23.404;2023-05-01T09:13:14;95803.59;;;20.25;82.80
11676;BME280;5894;42.768;23.404;2023-05-01T09:15:41;95807.47;;;20.04;80.15
11676;BME280;5894;42.768;23.404;2023-05-01T09:18:09;95808.13;;;19.98;84.04
11676;BME280;5894;42.768;23.404;2023-05-01T09:20:36;95804.13;;;19.88;83.19
11676;BME280;5894;42.768;23.404;2023-05-01T09:23:04;95800.97;;;19.83;85.16
11676;BME280;5894;42.768;23.404;2023-05-01T09:25:35;95799.97;;;19.91;86.08
11676;BME280;5894;42.768;23.404;2023-05-01T09:28:03;95801.75;;;20.06;79.96
11676;BME280;5894;42.768;23.404;2023-05-01T09:30:33;95809.22;;;20.16;81.39
11676;BME280;5894;42.768;23.404;2023-05-01T09:33:07;95803.06;;;20.15;78.90
11676;BME280;5894;42.768;23.404;2023-05-01T09:35:51;95803.47;;;20.14;80.41
11676;BME280;5894;42.768;23.404;2023-05-01T09:38:21;95805.47;;;20.21;77.54
11676;BME280;5894;42.768;23.404;2023-05-01T09:40:49;95808.97;;;20.25;74.09
11676;BME280;5894;42.768;23.404;2023-05-01T09:43:23;95801.66;;;20.22;76.96
11676;BME280;5894;42.768;23.404;2023-05-01T09:45:59;95794.56;;;20.10;72.25
11676;BME280;5894;42.768;23.404;2023-05-01T09:48:28;95806.84;;;20.11;72.55
11676;BME280;5894;42.768;23.404;2023-05-01T09:50:55;95802.06;;;20.01;72.68
11676;BME280;5894;42.768;23.404;2023-05-01T09:53:35;95794.38;;;19.99;72.90
11676;BME280;5894;42.768;23.404;2023-05-01T09:56:03;95795.81;;;19.93;70.31
11676;BME280;5894;42.768;23.404;2023-05-01T09:58:31;95781.88;;;19.84;73.12
11676;BME280;5894;42.768;23.404;2023-05-01T10:00:58;95798.63;;;20.00;74.50
11676;BME280;5894;42.768;23.404;2023-05-01T10:03:27;95791.47;;;20.08;71.46
11676;BME280;5894;42.768;23.404;2023-05-01T10:05:57;95790.78;;;20.11;68.60
11676;BME280;5894;42.768;23.404;2023-05-01T10:08:28;95790.34;;;20.09;68.24
11676;BME280;5894;42.768;23.404;2023-05-01T10:11:10;95795.59;;;20.02;68.18
11676;BME280;5894;42.768;23.404;2023-05-01T10:13:37;95794.34;;;19.76;65.18
11676;BME280;5894;42.768;23.404;2023-05-01T10:16:05;95787.53;;;19.60;67.88
11676;BME280;5894;42.768;23.404;2023-05-01T10:18:35;95781.47;;;19.63;66.75
11676;BME280;5894;42.768;23.404;2023-05-01T10:21:03;95764.63;;;19.62;64.05
11676;BME280;5894;42.768;23.404;2023-05-01T10:23:30;95721.22;;;19.30;61.99
11676;BME280;5894;42.768;23.404;2023-05-01T10:26:00;95768.88;;;19.63;61.12
11676;BME280;5894;42.768;23.404;2023-05-01T10:28:28;95771.19;;;19.65;64.28
11676;BME280;5894;42.768;23.404;2023-05-01T10:30:56;95764.78;;;19.69;65.44
11676;BME280;5894;42.768;23.404;2023-05-01T10:33:23;95742.19;;;19.48;61.63
11676;BME280;5894;42.768;23.404;2023-05-01T10:35:55;95773.28;;;19.75;61.91
11676;BME280;5894;42.768;23.404;2023-05-01T10:38:26;95769.63;;;19.83;62.94
11676;BME280;5894;42.768;23.404;2023-05-01T10:40:58;95777.38;;;19.88;65.21
11676;BME280;5894;42.768;23.404;2023-05-01T10:43:27;95769.63;;;19.83;63.04
11676;BME280;5894;42.768;23.404;2023-05-01T10:46:27;95750.06;;;19.79;64.63
11676;BME280;5894;42.768;23.404;2023-05-01T10:48:55;95764.44;;;19.94;64.82
11676;BME280;5894;42.768;23.404;2023-05-01T10:51:24;95769.16;;;20.00;64.37
11676;BME280;5894;42.768;23.404;2023-05-01T10:54:23;95765.47;;;20.08;65.89
11676;BME280;5894;42.768;23.404;2023-05-01T10:56:52;95770.94;;;20.15;62.16
11676;BME280;5894;42.768;23.404;2023-05-01T10:59:21;95762.91;;;20.15;60.38
11676;BME280;5894;42.768;23.404;2023-05-01T11:01:49;95768.81;;;20.02;59.25
11676;BME280;5894;42.768;23.404;2023-05-01T11:04:45;95760.72;;;19.98;56.67
11676;BME280;5894;42.768;23.404;2023-05-01T11:07:19;95748.59;;;19.82;59.53
11676;BME280;5894;42.768;23.404;2023-05-01T11:09:47;95756.66;;;19.85;58.98
11676;BME280;5894;42.768;23.404;2023-05-01T11:12:47;95752.44;;;19.84;56.96
11676;BME280;5894;42.768;23.404;2023-05-01T11:15:27;95750.53;;;19.85;56.73
11676;BME280;5894;42.768;23.404;2023-05-01T11:17:54;95752.84;;;19.86;57.21
11676;BME280;5894;42.768;23.404;2023-05-01T11:20:46;95744.13;;;19.89;59.05
11676;BME280;5894;42.768;23.404;2023-05-01T11:23:21;95749.22;;;19.98;56.95
11676;BME280;5894;42.768;23.404;2023-05-01T11:26:00;95758.38;;;19.97;58.40
11676;BME280;5894;42.768;23.404;2023-05-01T11:28:29;95754.34;;;20.06;59.18
11676;BME280;5894;42.768;23.404;2023-05-01T11:30:58;95756.31;;;20.09;57.25
11676;BME280;5894;42.768;23.404;2023-05-01T11:33:26;95755.06;;;20.26;56.47
11676;BME280;5894;42.768;23.404;2023-05-01T11:36:02;95750.75;;;20.41;55.04
11676;BME280;5894;42.768;23.404;2023-05-01T11:38:29;95717.56;;;20.26;50.08
11676;BME280;5894;42.768;23.404;2023-05-01T11:40:59;95748.72;;;20.61;51.93
11676;BME280;5894;42.768;23.404;2023-05-01T11:43:26;95745.91;;;20.76;49.22
11676;BME280;5894;42.768;23.404;2023-05-01T11:45:53;95744.88;;;20.84;50.21
11676;BME280;5894;42.768;23.404;2023-05-01T11:48:31;95745.38;;;20.94;50.29
11676;BME280;5894;42.768;23.404;2023-05-01T11:50:58;95748.16;;;21.01;48.86
11676;BME280;5894;42.768;23.404;2023-05-01T11:53:25;95743.88;;;20.96;49.80
11676;BME280;5894;42.768;23.404;2023-05-01T11:55:52;95745.41;;;20.97;51.45
11676;BME280;5894;42.768;23.404;2023-05-01T11:58:32;95743.91;;;21.00;52.66
11676;BME280;5894;42.768;23.404;2023-05-01T12:01:00;95742.34;;;20.95;52.16
11676;BME280;5894;42.768;23.404;2023-05-01T12:03:31;95743.75;;;20.85;55.93
11676;BME280;5894;42.768;23.404;2023-05-01T12:06:09;95743.94;;;20.73;56.64
11676;BME280;5894;42.768;23.404;2023-05-01T12:08:41;95752.09;;;20.54;54.34
11676;BME280;5894;42.768;23.404;2023-05-01T12:11:10;95752.75;;;20.47;57.51
11676;BME280;5894;42.768;23.404;2023-05-01T12:13:38;95750.25;;;20.35;60.99
11676;BME280;5894;42.768;23.404;2023-05-01T12:16:06;95651.91;;;19.41;62.96
11676;BME280;5894;42.768;23.404;2023-05-01T12:18:34;95756.00;;;20.14;62.22
11676;BME280;5894;42.768;23.404;2023-05-01T12:21:02;95766.13;;;20.25;61.14
11676;BME280;5894;42.768;23.404;2023-05-01T12:23:32;95758.81;;;20.22;61.67
11676;BME280;5894;42.768;23.404;2023-05-01T12:25:59;95755.53;;;20.32;62.89
11676;BME280;5894;42.768;23.404;2023-05-01T12:28:27;95759.78;;;20.33;58.92
11676;BME280;5894;42.768;23.404;2023-05-01T12:31:00;95762.28;;;20.22;59.54
11676;BME280;5894;42.768;23.404;2023-05-01T12:33:27;95756.75;;;20.11;59.19
11676;BME280;5894;42.768;23.404;2023-05-01T12:36:07;95737.09;;;20.27;61.26
11676;BME280;5894;42.768;23.404;2023-05-01T12:38:36;95759.84;;;20.36;59.13
11676;BME280;5894;42.768;23.404;2023-05-01T12:41:04;95762.22;;;20.41;60.51
11676;BME280;5894;42.768;23.404;2023-05-01T12:43:35;95755.41;;;20.47;61.21
11676;BME280;5894;42.768;23.404;2023-05-01T12:46:04;95748.06;;;20.41;57.45
11676;BME280;5894;42.768;23.404;2023-05-01T12:48:32;95760.94;;;20.58;58.68
11676;BME280;5894;42.768;23.404;2023-05-01T12:51:00;95761.69;;;20.55;56.78
11676;BME280;5894;42.768;23.404;2023-05-01T12:53:27;95766.25;;;20.55;58.26
11676;BME280;5894;42.768;23.404;2023-05-01T12:55:57;95762.56;;;20.63;56.17
11676;BME280;5894;42.768;23.404;2023-05-01T12:58:34;95751.69;;;20.52;54.74
11676;BME280;5894;42.768;23.404;2023-05-01T13:01:01;95762.22;;;20.68;57.51
11676;BME280;5894;42.768;23.404;2023-05-01T13:03:29;95765.94;;;20.60;61.02
11676;BME280;5894;42.768;23.404;2023-05-01T13:05:57;95770.25;;;20.41;60.41
11676;BME280;5894;42.768;23.404;2023-05-01T13:08:26;95771.06;;;20.45;57.89
11676;BME280;5894;42.768;23.404;2023-05-01T13:10:55;95768.72;;;20.40;57.54